Time;durP1;ratioP1;P1;durP2;ratioP2;P2;SDS_P1;SDS_P2;PMS_P1;PMS_P2;Temp;Humidity;BMP_temperature;BMP_pressure;BME280_temperature;BME280_humidity;BME280_pressure;Samples;Min_cycle;Max_cycle;Signal;HPM_P1;HPM_P2
2022/11/01 00:01:58;;;;;;;28.90;12.05;;;22.30;99.90;;;;;;5054339;28;20087;-48
2022/11/01 00:04:24;;;;;;;33.03;12.60;;;22.30;99.90;;;;;;5054193;28;20026;-48
2022/11/01 00:06:51;;;;;;;23.88;10.80;;;22.20;99.90;;;;;;5054198;28;20044;-47
2022/11/01 00:09:17;;;;;;;25.25;9.77;;;22.30;99.90;;;;;;5054239;28;20028;-48
2022/11/01 00:11:43;;;;;;;26.92;10.90;;;22.20;99.90;;;;;;5053889;28;20033;-48
2022/11/01 00:14:12;;;;;;;30.20;11.02;;;22.20;99.90;;;;;;5053898;28;20492;-48
2022/11/01 00:16:38;;;;;;;22.77;11.63;;;22.20;99.90;;;;;;5054135;28;20025;-48
2022/11/01 00:19:04;;;;;;;26.17;11.45;;;22.20;99.90;;;;;;5053982;28;20028;-48
2022/11/01 00:21:30;;;;;;;23.13;10.13;;;22.20;99.90;;;;;;5053963;28;20038;-48
2022/11/01 00:23:55;;;;;;;23.40;11.07;;;22.20;99.90;;;;;;5053853;28;20106;-48
2022/11/01 00:26:23;;;;;;;30.15;12.10;;;22.20;99.90;;;;;;5053847;28;20025;-48
2022/11/01 00:28:50;;;;;;;24.35;12.10;;;22.20;99.90;;;;;;5053980;28;20385;-48
2022/11/01 00:31:18;;;;;;;21.98;12.85;;;22.20;99.90;;;;;;5053748;28;20075;-47
2022/11/01 00:33:44;;;;;;;34.05;13.70;;;22.20;99.90;;;;;;5052911;28;20064;-48
2022/11/01 00:36:10;;;;;;;34.63;18.55;;;22.20;99.90;;;;;;5053568;28;20045;-48
2022/11/01 00:38:36;;;;;;;35.85;14.90;;;22.10;99.90;;;;;;5053692;28;20036;-47
2022/11/01 00:41:03;;;;;;;23.17;12.88;;;22.10;99.90;;;;;;5053342;28;20041;-47
2022/11/01 00:43:33;;;;;;;28.63;13.77;;;22.10;99.90;;;;;;5053575;28;20021;-48
2022/11/01 00:45:59;;;;;;;26.50;12.35;;;22.20;99.90;;;;;;5053617;28;20029;-46
2022/11/01 00:48:25;;;;;;;24.38;12.18;;;22.20;99.90;;;;;;5053543;28;20420;-46
2022/11/01 00:50:52;;;;;;;27.80;12.20;;;22.20;99.90;;;;;;5053483;28;20028;-45
2022/11/01 00:53:18;;;;;;;26.42;12.57;;;22.20;99.90;;;;;;5053367;28;20029;-45
2022/11/01 00:55:44;;;;;;;22.80;12.15;;;22.20;99.90;;;;;;5053255;28;20021;-45
2022/11/01 00:58:09;;;;;;;27.58;11.45;;;22.20;99.90;;;;;;5053357;28;20431;-45
2022/11/01 01:00:36;;;;;;;25.75;12.02;;;22.20;99.90;;;;;;5076834;22;20064;-48
2022/11/01 01:03:04;;;;;;;32.60;11.38;;;22.20;99.90;;;;;;5073221;28;20040;-50
2022/11/01 01:05:30;;;;;;;22.05;11.43;;;22.20;99.90;;;;;;5073275;28;20021;-50
2022/11/01 01:07:55;;;;;;;25.35;11.30;;;22.20;99.90;;;;;;5055142;28;20047;-51
2022/11/01 01:10:21;;;;;;;23.80;11.77;;;22.20;99.90;;;;;;5073302;28;20027;-51
2022/11/01 01:12:47;;;;;;;25.30;11.73;;;22.20;99.90;;;;;;5073109;28;20107;-51
2022/11/01 01:15:13;;;;;;;24.20;12.00;;;22.20;99.90;;;;;;5071885;28;20078;-51
2022/11/01 01:17:38;;;;;;;25.65;12.25;;;22.20;99.90;;;;;;5073038;28;20037;-51
2022/11/01 01:20:05;;;;;;;24.90;13.20;;;22.20;99.90;;;;;;5073246;28;20024;-51
2022/11/01 01:22:31;;;;;;;34.53;15.13;;;22.10;99.90;;;;;;5072902;28;20043;-51
2022/11/01 01:24:57;;;;;;;34.25;14.48;;;22.20;99.90;;;;;;5073208;28;20017;-51
2022/11/01 01:27:22;;;;;;;25.10;14.23;;;22.10;99.90;;;;;;5072880;28;20029;-51
2022/11/01 01:29:48;;;;;;;33.00;14.70;;;22.10;99.90;;;;;;5071897;28;20039;-51
2022/11/01 01:32:16;;;;;;;28.95;15.20;;;22.10;99.90;;;;;;5072977;28;20028;-51
2022/11/01 01:34:41;;;;;;;;;;;22.10;99.90;;;;;;5073310;28;20021;-50
2022/11/01 01:37:08;;;;;;;29.92;13.88;;;22.10;99.90;;;;;;5072960;28;19912;-51
2022/11/01 01:39:35;;;;;;;25.40;14.00;;;22.10;99.90;;;;;;5072722;28;20028;-51
2022/11/01 01:42:11;;;;;;;30.65;13.48;;;22.10;99.90;;;;;;5072996;28;20044;-50
2022/11/01 01:44:49;;;;;;;27.38;13.38;;;22.00;99.90;;;;;;5074736;28;20029;-51
2022/11/01 01:47:37;;;;;;;28.15;13.15;;;22.10;99.90;;;;;;5076903;28;20396;-50
2022/11/01 01:50:21;;;;;;;23.92;13.73;;;22.00;99.90;;;;;;5077074;28;20048;-50
2022/11/01 01:52:58;;;;;;;32.55;16.52;;;22.00;99.90;;;;;;5077104;28;20024;-51
2022/11/01 01:55:26;;;;;;;;;;;21.90;99.90;;;;;;5077138;28;20086;-51
2022/11/01 01:57:52;;;;;;;;;;;21.90;99.90;;;;;;5077655;28;20245;-51
2022/11/01 02:00:18;;;;;;;31.33;16.90;;;21.90;99.90;;;;;;5076962;28;19916;-49
2022/11/01 02:02:44;;;;;;;27.98;16.10;;;21.80;99.90;;;;;;5076523;28;20638;-49
2022/11/01 02:05:30;;;;;;;32.47;16.70;;;21.80;99.90;;;;;;5076643;28;20101;-49
2022/11/01 02:07:57;;;;;;;35.63;15.80;;;21.80;99.90;;;;;;5076602;28;20017;-49
2022/11/01 02:10:23;;;;;;;27.33;15.68;;;21.80;99.90;;;;;;5076441;28;20027;-49
2022/11/01 02:12:49;;;;;;;24.88;16.15;;;21.80;99.90;;;;;;5076344;28;20028;-49
2022/11/01 02:15:17;;;;;;;31.75;15.57;;;21.80;99.90;;;;;;5076455;28;20081;-48
2022/11/01 02:18:06;;;;;;;27.55;14.48;;;21.80;99.90;;;;;;5076185;28;20021;-49
2022/11/01 02:20:52;;;;;;;30.88;17.02;;;21.80;99.90;;;;;;5076232;28;20107;-49
2022/11/01 02:23:27;;;;;;;30.23;16.07;;;21.80;99.90;;;;;;5058344;28;20037;-48
2022/11/01 02:26:10;;;;;;;28.27;15.55;;;21.80;99.90;;;;;;5076238;28;20097;-48
2022/11/01 02:29:00;;;;;;;32.45;15.88;;;21.80;99.90;;;;;;5076176;28;20046;-49
2022/11/01 02:31:29;;;;;;;33.80;16.98;;;21.80;99.90;;;;;;5074749;28;20104;-49
2022/11/01 02:34:00;;;;;;;36.10;15.55;;;21.80;99.90;;;;;;5076039;28;20016;-49
2022/11/01 02:37:01;;;;;;;31.05;15.82;;;21.80;99.90;;;;;;5075920;28;20099;-49
2022/11/01 02:39:33;;;;;;;23.95;15.18;;;21.80;99.90;;;;;;5045246;28;20046;-49
2022/11/01 02:42:14;;;;;;;33.65;16.17;;;21.80;99.90;;;;;;5075885;28;20032;-49
2022/11/01 02:44:44;;;;;;;31.92;16.23;;;21.80;99.90;;;;;;5075909;28;20036;-49
2022/11/01 02:47:11;;;;;;;29.85;13.13;;;21.80;99.90;;;;;;5075802;28;20469;-49
2022/11/01 02:49:41;;;;;;;26.50;14.20;;;21.80;99.90;;;;;;5075724;28;20028;-49
2022/11/01 02:52:11;;;;;;;26.13;19.88;;;21.80;99.90;;;;;;5074323;28;20107;-49
2022/11/01 02:54:48;;;;;;;37.58;20.67;;;21.80;99.90;;;;;;5075633;28;20029;-49
2022/11/01 02:57:25;;;;;;;41.25;14.05;;;21.80;99.90;;;;;;5075046;28;20020;-49
2022/11/01 02:59:51;;;;;;;21.27;13.13;;;21.80;99.90;;;;;;5082686;22;20044;-48
2022/11/01 03:02:38;;;;;;;24.38;11.48;;;21.80;99.90;;;;;;5055537;28;20036;-46
2022/11/01 03:05:20;;;;;;;19.08;10.95;;;21.70;99.90;;;;;;5037682;28;20069;-46
2022/11/01 03:08:01;;;;;;;21.50;9.63;;;21.70;99.90;;;;;;5037806;28;20029;-46
2022/11/01 03:10:44;;;;;;;23.40;10.52;;;21.70;99.90;;;;;;5055156;28;20473;-46
2022/11/01 03:13:37;;;;;;;20.95;9.60;;;21.60;99.90;;;;;;5055505;28;20103;-47
2022/11/01 03:16:38;;;;;;;23.55;8.90;;;21.70;99.90;;;;;;5055520;28;20108;-46
2022/11/01 03:19:19;;;;;;;19.77;9.52;;;21.60;99.90;;;;;;5050944;28;20029;-46
2022/11/01 03:21:58;;;;;;;24.05;9.80;;;21.60;99.90;;;;;;5037103;28;20053;-47
2022/11/01 03:24:31;;;;;;;16.88;9.60;;;21.60;99.90;;;;;;5055138;28;20340;-46
2022/11/01 03:27:26;;;;;;;26.95;11.50;;;21.50;99.90;;;;;;5037227;28;20032;-46
2022/11/01 03:29:59;;;;;;;20.27;10.57;;;21.50;99.90;;;;;;5055059;28;20505;-47
2022/11/01 03:32:30;;;;;;;15.38;9.80;;;21.50;99.90;;;;;;5055035;28;20059;-46
2022/11/01 03:34:59;;;;;;;22.15;10.70;;;21.50;99.90;;;;;;5054899;28;20032;-46
2022/11/01 03:37:27;;;;;;;21.45;10.90;;;21.50;99.90;;;;;;5054963;28;20044;-46
2022/11/01 03:39:54;;;;;;;24.60;11.20;;;21.40;99.90;;;;;;5054882;28;20166;-46
2022/11/01 03:42:22;;;;;;;24.83;9.02;;;21.40;99.90;;;;;;5054628;28;20043;-47
2022/11/01 03:45:00;;;;;;;16.50;8.75;;;21.40;99.90;;;;;;5036762;28;20053;-46
2022/11/01 03:47:26;;;;;;;29.25;10.38;;;21.40;99.90;;;;;;5054750;28;20104;-46
2022/11/01 03:50:21;;;;;;;24.30;9.45;;;21.40;99.90;;;;;;5036889;28;20477;-46
2022/11/01 03:52:47;;;;;;;19.05;9.32;;;21.40;99.90;;;;;;5054573;28;20021;-46
2022/11/01 03:55:17;;;;;;;22.80;9.50;;;21.40;99.90;;;;;;5054579;28;20024;-46
2022/11/01 03:57:51;;;;;;;20.40;9.63;;;21.40;99.90;;;;;;5054449;28;20465;-47
2022/11/01 04:00:25;;;;;;;25.05;10.52;;;21.40;99.90;;;;;;5074357;22;20056;-49
2022/11/01 04:02:52;;;;;;;22.33;11.55;;;21.40;99.90;;;;;;5074242;28;20040;-47
2022/11/01 04:05:19;;;;;;;24.80;10.43;;;21.40;99.90;;;;;;5074337;28;20023;-48
2022/11/01 04:07:45;;;;;;;24.23;11.00;;;21.40;99.90;;;;;;5073377;28;20029;-49
2022/11/01 04:10:12;;;;;;;22.15;11.68;;;21.30;99.90;;;;;;5056268;28;20482;-49
2022/11/01 04:12:38;;;;;;;20.20;10.30;;;21.30;99.90;;;;;;5074287;28;20048;-49
2022/11/01 04:20:57;;;;;;;23.83;8.30;;;21.30;99.90;;;;;;5073935;28;20391;-48
2022/11/01 04:23:23;;;;;;;21.20;9.68;;;21.30;99.90;;;;;;5073991;28;20028;-49
2022/11/01 04:25:49;;;;;;;24.77;10.10;;;21.20;99.90;;;;;;5073770;28;20069;-49
2022/11/01 04:28:15;;;;;;;22.63;9.23;;;21.30;99.90;;;;;;5073959;28;20052;-49
2022/11/01 04:30:42;;;;;;;20.55;9.10;;;21.30;99.90;;;;;;5073844;28;20035;-48
2022/11/01 04:33:09;;;;;;;17.27;9.38;;;21.30;99.90;;;;;;5073738;28;20111;-49
2022/11/01 04:35:35;;;;;;;20.45;10.40;;;21.30;99.90;;;;;;5073678;28;20116;-48
2022/11/01 04:38:01;;;;;;;27.53;10.43;;;21.20;99.90;;;;;;5073831;28;20020;-49
2022/11/01 04:40:27;;;;;;;19.67;9.98;;;21.20;99.90;;;;;;5073752;28;20021;-49
2022/11/01 04:42:53;;;;;;;28.98;10.75;;;21.20;99.90;;;;;;5073483;28;20037;-49
2022/11/01 04:45:18;;;;;;;25.88;10.57;;;21.20;99.90;;;;;;5073492;28;20046;-49
2022/11/01 04:47:51;;;;;;;22.17;10.98;;;21.10;99.90;;;;;;5073362;28;20494;-49
2022/11/01 04:50:20;;;;;;;20.08;11.30;;;21.10;99.90;;;;;;5073551;28;20017;-49
2022/11/01 04:52:47;;;;;;;21.75;10.45;;;21.10;99.90;;;;;;5073534;28;20016;-49
2022/11/01 04:55:13;;;;;;;21.65;9.05;;;21.00;99.90;;;;;;5073488;28;20028;-49
2022/11/01 04:57:40;;;;;;;24.73;10.40;;;21.00;99.90;;;;;;5073283;28;20031;-49
2022/11/01 05:00:10;;;;;;;22.35;10.60;;;20.90;99.90;;;;;;5074035;28;20055;-49
2022/11/01 05:02:36;;;;;;;32.30;10.95;;;20.90;99.90;;;;;;5073873;28;20037;-49
2022/11/01 05:05:04;;;;;;;23.80;12.82;;;20.90;99.90;;;;;;5073222;28;20082;-49
2022/11/01 05:07:29;;;;;;;24.60;10.82;;;20.90;99.90;;;;;;5073145;28;20021;-49
2022/11/01 05:09:55;;;;;;;20.77;10.52;;;20.90;99.90;;;;;;5073302;28;20498;-49
2022/11/01 05:12:21;;;;;;;21.48;10.00;;;20.80;99.90;;;;;;5073031;28;20502;-49
2022/11/01 05:14:46;;;;;;;32.55;10.20;;;20.80;99.90;;;;;;5055456;28;20012;-49
2022/11/01 05:17:12;;;;;;;26.48;10.55;;;20.80;99.90;;;;;;5073243;28;20024;-49
2022/11/01 05:19:38;;;;;;;25.77;11.02;;;20.80;99.90;;;;;;5072827;28;20472;-49
2022/11/01 05:22:04;;;;;;;26.45;9.77;;;20.80;99.90;;;;;;5073176;28;20033;-49
2022/11/01 05:24:29;;;;;;;27.40;10.98;;;20.70;99.90;;;;;;5072982;28;20464;-49
2022/11/01 05:26:55;;;;;;;24.58;10.52;;;20.70;99.90;;;;;;5073245;28;20048;-50
2022/11/01 05:29:21;;;;;;;17.40;11.73;;;20.70;99.90;;;;;;5073063;28;20461;-50
2022/11/01 05:31:46;;;;;;;25.35;11.73;;;20.70;99.90;;;;;;5055029;28;20020;-50
2022/11/01 05:34:12;;;;;;;23.17;12.48;;;20.70;99.90;;;;;;5054906;28;20029;-50
2022/11/01 05:36:38;;;;;;;22.15;11.95;;;20.70;99.90;;;;;;5073032;28;20098;-49
2022/11/01 05:39:04;;;;;;;27.23;13.18;;;20.70;99.90;;;;;;5073052;28;20028;-49
2022/11/01 05:41:30;;;;;;;28.85;15.07;;;20.70;99.90;;;;;;5054725;28;20039;-49
2022/11/01 05:43:55;;;;;;;28.52;12.73;;;20.70;99.90;;;;;;5072950;28;20024;-49
2022/11/01 05:46:21;;;;;;;29.33;13.02;;;20.70;99.90;;;;;;5073000;28;20534;-49
2022/11/01 05:48:47;;;;;;;24.17;14.20;;;20.70;99.90;;;;;;5072854;28;20043;-49
2022/11/01 05:51:12;;;;;;;31.05;13.68;;;20.70;99.90;;;;;;5072873;28;20024;-49
2022/11/01 05:53:38;;;;;;;33.70;14.77;;;20.70;99.90;;;;;;5072778;28;20029;-49
2022/11/01 05:56:04;;;;;;;36.05;15.35;;;20.70;99.90;;;;;;5072709;28;20017;-49
2022/11/01 05:58:30;;;;;;;32.80;14.57;;;20.70;99.90;;;;;;5072685;28;20104;-49
2022/11/01 06:01:00;;;;;;;26.48;15.48;;;20.70;99.90;;;;;;5072607;28;20052;-49
2022/11/01 06:03:26;;;;;;;33.10;15.93;;;20.70;99.90;;;;;;5072655;28;20064;-49
2022/11/01 06:05:52;;;;;;;22.98;14.85;;;20.70;99.90;;;;;;5072737;28;20503;-49
2022/11/01 06:08:18;;;;;;;31.85;16.08;;;20.70;99.90;;;;;;5072718;28;20099;-49
2022/11/01 06:10:44;;;;;;;31.50;15.73;;;20.70;99.90;;;;;;5072866;28;20032;-49
2022/11/01 06:13:10;;;;;;;27.15;15.43;;;20.70;99.90;;;;;;5072720;28;20021;-49
2022/11/01 06:15:35;;;;;;;26.85;15.45;;;20.70;99.90;;;;;;5072679;28;20016;-49
2022/11/01 06:18:01;;;;;;;31.13;15.85;;;20.70;99.90;;;;;;5072633;28;20380;-49
2022/11/01 06:20:29;;;;;;;26.25;14.57;;;20.70;99.90;;;;;;5072523;28;20032;-49
2022/11/01 06:22:56;;;;;;;33.05;16.45;;;20.70;99.90;;;;;;5072345;28;20025;-49
2022/11/01 06:25:22;;;;;;;30.27;15.32;;;20.70;99.90;;;;;;5072670;28;20107;-50
2022/11/01 06:27:48;;;;;;;28.58;18.38;;;20.70;99.90;;;;;;5072461;28;20036;-49
2022/11/01 06:30:14;;;;;;;31.25;14.63;;;20.70;99.90;;;;;;5072514;28;20017;-49
2022/11/01 06:32:40;;;;;;;27.38;14.98;;;20.70;99.90;;;;;;5075527;28;20391;-48
2022/11/01 06:35:06;;;;;;;29.48;14.00;;;20.70;99.90;;;;;;5076108;28;20108;-49
2022/11/01 06:37:32;;;;;;;23.65;13.15;;;20.70;99.90;;;;;;5076133;28;20398;-48
2022/11/01 06:39:57;;;;;;;25.58;13.27;;;20.70;99.90;;;;;;5076117;28;20027;-49
2022/11/01 06:42:23;;;;;;;22.33;12.73;;;20.70;99.90;;;;;;5075766;28;20107;-48
2022/11/01 06:44:49;;;;;;;28.02;13.60;;;20.60;99.90;;;;;;5057894;28;20443;-49
2022/11/01 06:47:15;;;;;;;24.48;11.30;;;20.60;99.90;;;;;;5075887;28;20115;-49
2022/11/01 06:49:40;;;;;;;24.30;12.38;;;20.60;99.90;;;;;;5075829;28;20024;-49
2022/11/01 06:52:07;;;;;;;21.73;10.88;;;20.60;99.90;;;;;;5075836;28;20063;-48
2022/11/01 06:54:32;;;;;;;24.15;10.95;;;20.60;99.90;;;;;;5075638;28;20036;-49
2022/11/01 06:56:58;;;;;;;20.80;10.38;;;20.60;99.90;;;;;;5075653;28;20043;-49
2022/11/01 06:59:24;;;;;;;22.77;11.07;;;20.60;99.90;;;;;;5075304;28;20460;-49
2022/11/01 07:01:53;;;;;;;19.55;9.73;;;20.60;99.90;;;;;;5075539;28;20055;-50
2022/11/01 07:04:20;;;;;;;20.55;10.85;;;20.60;99.90;;;;;;5075376;28;20025;-50
2022/11/01 07:06:46;;;;;;;25.40;11.07;;;20.60;99.90;;;;;;5075498;28;20067;-49
2022/11/01 07:09:12;;;;;;;23.77;9.95;;;20.60;99.90;;;;;;5075418;28;20032;-49
2022/11/01 07:11:38;;;;;;;22.35;9.82;;;20.60;99.90;;;;;;5057304;28;20485;-50
2022/11/01 07:14:05;;;;;;;23.38;10.73;;;20.60;99.90;;;;;;5075270;28;20384;-49
2022/11/01 07:16:31;;;;;;;22.60;9.63;;;20.60;99.90;;;;;;5075327;28;20031;-49
2022/11/01 07:18:57;;;;;;;21.30;8.43;;;20.60;99.90;;;;;;5057186;28;20029;-49
2022/11/01 07:21:23;;;;;;;20.60;9.38;;;20.70;99.90;;;;;;5074994;28;20598;-49
2022/11/01 07:23:51;;;;;;;20.20;10.20;;;20.70;99.90;;;;;;5074972;28;20115;-49
2022/11/01 07:26:17;;;;;;;;;;;20.80;99.90;;;;;;5075779;28;20093;-49
2022/11/01 07:28:42;;;;;;;29.13;10.00;;;20.80;99.90;;;;;;5075063;28;19961;-49
2022/11/01 07:31:08;;;;;;;17.83;8.80;;;20.90;99.90;;;;;;5074963;28;20384;-49
2022/11/01 07:33:34;;;;;;;23.05;9.50;;;20.90;99.90;;;;;;5074990;28;20025;-49
2022/11/01 07:36:00;;;;;;;22.55;9.50;;;21.00;99.90;;;;;;5057070;28;20078;-50
2022/11/01 07:38:26;;;;;;;18.92;9.55;;;21.00;99.90;;;;;;5074976;28;20056;-49
2022/11/01 07:40:53;;;;;;;36.85;11.57;;;21.00;99.90;;;;;;5074794;28;20044;-49
2022/11/01 07:43:20;;;;;;;19.73;9.30;;;21.10;99.90;;;;;;5074473;28;20037;-49
2022/11/01 07:45:46;;;;;;;18.67;9.37;;;21.10;99.90;;;;;;5056632;28;20289;-49
2022/11/01 07:48:16;;;;;;;21.02;9.15;;;21.20;99.90;;;;;;5056624;28;20119;-49
2022/11/01 07:50:43;;;;;;;29.05;10.70;;;21.20;99.90;;;;;;5074641;28;20385;-49
2022/11/01 07:53:14;;;;;;;29.73;9.37;;;21.20;99.90;;;;;;5056603;28;20029;-49
2022/11/01 07:55:41;;;;;;;22.08;8.35;;;21.20;99.90;;;;;;5074531;28;20023;-49
2022/11/01 07:58:08;;;;;;;27.60;10.50;;;21.30;99.90;;;;;;5056788;28;20108;-49
2022/11/01 08:00:34;;;;;;;25.35;9.52;;;21.30;99.90;;;;;;5074224;28;20613;-49
2022/11/01 08:03:06;;;;;;;23.10;9.40;;;21.30;99.90;;;;;;5074323;28;20040;-49
2022/11/01 08:05:32;;;;;;;25.88;9.60;;;21.40;99.90;;;;;;5074534;28;20028;-49
2022/11/01 08:07:58;;;;;;;22.63;9.35;;;21.40;99.90;;;;;;5074232;28;20464;-49
2022/11/01 08:10:24;;;;;;;23.02;10.95;;;21.50;99.90;;;;;;5074062;28;20028;-49
2022/11/01 08:12:50;;;;;;;22.50;10.55;;;21.60;99.90;;;;;;5074213;28;20386;-49
2022/11/01 08:15:15;;;;;;;19.10;10.00;;;21.60;99.90;;;;;;5074115;28;20109;-49
2022/11/01 08:17:41;;;;;;;20.08;10.10;;;21.60;99.90;;;;;;5073691;28;20009;-49
2022/11/01 08:20:08;;;;;;;17.95;9.25;;;21.70;99.90;;;;;;5074023;28;20032;-49
2022/11/01 08:22:38;;;;;;;21.70;11.25;;;21.80;99.90;;;;;;5073715;28;20039;-49
2022/11/01 08:25:04;;;;;;;22.30;11.27;;;21.80;99.90;;;;;;5073976;28;20023;-49
2022/11/01 08:27:29;;;;;;;22.45;9.93;;;21.90;99.90;;;;;;5056028;28;20376;-49
2022/11/01 08:29:55;;;;;;;22.58;12.00;;;21.90;99.90;;;;;;5073814;28;20027;-49
2022/11/01 08:32:21;;;;;;;21.40;11.85;;;21.90;99.90;;;;;;5055888;28;20028;-50
2022/11/01 08:34:47;;;;;;;22.25;11.23;;;22.00;99.90;;;;;;5073881;28;20021;-49
2022/11/01 08:37:13;;;;;;;26.17;12.05;;;22.00;99.90;;;;;;5073622;28;20032;-50
2022/11/01 08:39:39;;;;;;;25.27;11.50;;;22.00;99.90;;;;;;5073719;28;20062;-49
2022/11/01 08:42:05;;;;;;;27.63;11.45;;;22.10;99.90;;;;;;5073510;28;20032;-49
2022/11/01 08:44:33;;;;;;;28.48;12.07;;;22.10;99.90;;;;;;5073587;28;20024;-49
2022/11/01 08:47:00;;;;;;;31.45;9.82;;;22.20;99.90;;;;;;5073560;28;20008;-49
2022/11/01 08:49:27;;;;;;;31.83;10.75;;;22.20;99.90;;;;;;5073522;28;20037;-49
2022/11/01 08:51:53;;;;;;;25.35;11.18;;;22.30;99.90;;;;;;5073331;28;20487;-48
2022/11/01 08:54:19;;;;;;;24.75;11.20;;;22.40;99.90;;;;;;5072863;28;20043;-49
2022/11/01 08:56:44;;;;;;;18.95;9.43;;;22.50;99.90;;;;;;5073461;28;20024;-49
2022/11/01 08:59:10;;;;;;;26.67;9.90;;;22.60;99.90;;;;;;5073374;28;20020;-49
2022/11/01 09:01:37;;;;;;;22.50;9.98;;;22.70;99.90;;;;;;5073124;28;20049;-49
2022/11/01 09:04:03;;;;;;;30.87;11.50;;;22.70;99.90;;;;;;5055405;28;20021;-49
2022/11/01 09:06:29;;;;;;;27.42;10.00;;;22.80;99.90;;;;;;5073268;28;20025;-48
2022/11/01 09:08:55;;;;;;;27.88;9.52;;;22.90;99.90;;;;;;5073210;28;20031;-49
2022/11/01 09:11:23;;;;;;;16.40;9.98;;;22.90;99.90;;;;;;5073180;28;20036;-49
2022/11/01 09:13:49;;;;;;;21.15;9.48;;;23.00;99.90;;;;;;5073138;28;20031;-49
2022/11/01 09:16:15;;;;;;;23.08;10.80;;;23.00;99.90;;;;;;5073121;28;20095;-49
2022/11/01 09:18:42;;;;;;;23.40;10.45;;;23.10;99.90;;;;;;5073156;28;20502;-49
2022/11/01 09:21:08;;;;;;;27.50;10.60;;;23.10;99.90;;;;;;5072946;28;20025;-49
2022/11/01 09:23:34;;;;;;;20.92;10.77;;;23.20;99.90;;;;;;5072930;28;20043;-49
2022/11/01 09:26:02;;;;;;;24.85;10.77;;;23.20;99.90;;;;;;5073091;28;20089;-49
2022/11/01 09:28:29;;;;;;;22.35;10.57;;;23.30;99.90;;;;;;5072802;28;20035;-49
2022/11/01 09:30:55;;;;;;;22.27;9.95;;;23.30;99.90;;;;;;5073076;28;20021;-49
2022/11/01 09:33:22;;;;;;;19.63;10.23;;;23.40;99.90;;;;;;5072899;28;20028;-49
2022/11/01 09:35:51;;;;;;;30.08;10.50;;;23.40;99.90;;;;;;5072882;28;20032;-49
2022/11/01 09:38:17;;;;;;;21.67;10.55;;;23.40;99.90;;;;;;5072905;28;20040;-49
2022/11/01 09:40:45;;;;;;;24.33;10.82;;;23.50;99.90;;;;;;5073097;28;20052;-49
2022/11/01 09:43:20;;;;;;;30.00;11.77;;;23.50;99.90;;;;;;5072948;28;20393;-49
2022/11/01 09:45:50;;;;;;;23.95;10.35;;;23.50;99.90;;;;;;5072810;28;20021;-49
2022/11/01 09:48:17;;;;;;;23.48;10.82;;;23.60;99.90;;;;;;5072809;28;20017;-49
2022/11/01 09:50:43;;;;;;;32.63;11.25;;;23.60;99.90;;;;;;5073113;28;20461;-49
2022/11/01 09:53:17;;;;;;;27.00;9.50;;;23.60;99.90;;;;;;5055190;28;20051;-49
2022/11/01 09:56:04;;;;;;;23.38;10.02;;;23.60;99.90;;;;;;5072770;28;20281;-49
2022/11/01 09:59:08;;;;;;;22.08;10.00;;;23.70;99.90;;;;;;5072797;28;20052;-49
2022/11/01 10:01:48;;;;;;;29.60;9.02;;;23.70;99.90;;;;;;5031157;28;20052;-49
2022/11/01 10:04:32;;;;;;;25.02;11.00;;;23.80;99.90;;;;;;5072746;28;20460;-49
2022/11/01 10:07:01;;;;;;;22.15;9.13;;;23.80;99.90;;;;;;5074979;28;20432;-49
2022/11/01 10:09:47;;;;;;;20.30;8.77;;;23.90;99.90;;;;;;5076534;28;20024;-49
2022/11/01 10:12:44;;;;;;;19.33;8.70;;;24.00;99.90;;;;;;5076243;28;20029;-49
2022/11/01 10:15:31;;;;;;;16.50;9.23;;;24.10;99.90;;;;;;5061293;28;20035;-50
2022/11/01 10:18:06;;;;;;;21.30;9.55;;;24.20;99.90;;;;;;5076245;28;20025;-49
2022/11/01 10:20:37;;;;;;;21.92;7.78;;;24.30;99.90;;;;;;5076217;28;20056;-49
2022/11/01 10:23:04;;;;;;;22.38;8.98;;;24.40;99.90;;;;;;5076153;28;20040;-49
2022/11/01 10:25:34;;;;;;;17.55;8.25;;;24.50;99.90;;;;;;5058104;28;20024;-50
2022/11/01 10:28:23;;;;;;;18.67;9.43;;;24.60;99.90;;;;;;5076082;28;20028;-49
2022/11/01 10:30:56;;;;;;;20.98;9.02;;;24.70;99.90;;;;;;5076045;28;20032;-49
2022/11/01 10:33:45;;;;;;;24.17;10.25;;;24.80;99.90;;;;;;5075937;28;20033;-49
2022/11/01 10:36:20;;;;;;;26.17;8.35;;;24.90;99.90;;;;;;5075797;28;20074;-49
2022/11/01 10:39:06;;;;;;;22.70;8.85;;;25.00;99.90;;;;;;5075777;28;20028;-50
2022/11/01 10:41:49;;;;;;;28.15;9.70;;;25.00;99.90;;;;;;5057799;28;20391;-50
2022/11/01 10:44:42;;;;;;;19.88;8.80;;;25.10;99.90;;;;;;5057889;28;20099;-49
2022/11/01 10:47:15;;;;;;;25.63;8.95;;;25.10;99.90;;;;;;5058016;28;20029;-50
2022/11/01 10:50:09;;;;;;;15.65;8.35;;;25.20;99.90;;;;;;5075684;28;20103;-50
2022/11/01 10:52:41;;;;;;;18.38;9.00;;;25.20;99.90;;;;;;5075517;28;20522;-50
2022/11/01 10:55:12;;;;;;;24.08;10.32;;;25.20;99.90;;;;;;5075617;28;20021;-50
2022/11/01 10:57:44;;;;;;;27.17;10.43;;;25.30;99.90;;;;;;5057512;28;20029;-50
2022/11/01 11:00:16;;;;;;;29.52;11.57;;;25.40;99.90;;;;;;5075418;28;20492;-50
2022/11/01 11:02:53;;;;;;;22.05;12.05;;;25.40;99.90;;;;;;5075513;28;20522;-50
2022/11/01 11:05:21;;;;;;;26.20;12.07;;;25.50;99.90;;;;;;5057373;28;20029;-50
2022/11/01 11:07:47;;;;;;;16.70;9.38;;;25.50;99.90;;;;;;5075396;28;20033;-50
2022/11/01 11:10:31;;;;;;;26.73;11.48;;;25.60;99.90;;;;;;5075291;28;20094;-50
2022/11/01 11:13:01;;;;;;;20.33;10.27;;;25.60;99.90;;;;;;5075227;28;20032;-50
2022/11/01 11:15:42;;;;;;;32.80;13.93;;;25.70;99.90;;;;;;5057330;28;20074;-50
2022/11/01 11:18:34;;;;;;;19.45;10.30;;;25.80;99.90;;;;;;5074687;28;20029;-50
2022/11/01 11:21:07;;;;;;;23.65;10.15;;;25.80;99.90;;;;;;5075152;28;20092;-49
2022/11/01 11:23:38;;;;;;;17.67;9.93;;;25.90;99.90;;;;;;5056803;28;20074;-50
2022/11/01 11:26:07;;;;;;;18.80;9.77;;;26.00;99.90;;;;;;5075034;28;20048;-50
2022/11/01 11:28:41;;;;;;;20.77;9.63;;;26.10;99.90;;;;;;5056745;28;20473;-50
2022/11/01 11:31:30;;;;;;;26.00;9.90;;;26.10;99.90;;;;;;5074847;28;20028;-49
2022/11/01 11:34:00;;;;;;;21.90;10.93;;;26.20;99.90;;;;;;5074900;28;20028;-49
2022/11/01 11:36:35;;;;;;;20.55;12.00;;;26.30;99.90;;;;;;5074697;28;20027;-50
2022/11/01 11:39:01;;;;;;;23.17;10.85;;;26.40;99.90;;;;;;5074506;28;20012;-50
2022/11/01 11:41:28;;;;;;;40.80;11.67;;;26.40;99.90;;;;;;5074630;28;20024;-50
2022/11/01 11:43:54;;;;;;;22.73;9.05;;;26.50;99.90;;;;;;5074697;28;20352;-50
2022/11/01 11:46:22;;;;;;;19.77;9.30;;;26.50;99.90;;;;;;5056811;28;20444;-50
2022/11/01 11:48:57;;;;;;;22.33;9.90;;;26.60;99.90;;;;;;5074594;28;20029;-49
2022/11/01 11:51:27;;;;;;;23.13;10.98;;;26.60;99.90;;;;;;5074397;28;20046;-50
2022/11/01 11:54:08;;;;;;;19.73;9.35;;;26.70;99.90;;;;;;5074353;28;20469;-50
2022/11/01 11:56:33;;;;;;;18.45;9.40;;;26.80;99.90;;;;;;5074327;28;20095;-50
2022/11/01 11:59:08;;;;;;;21.45;10.23;;;26.80;99.90;;;;;;5074294;28;20543;-50
2022/11/01 12:01:34;;;;;;;26.15;11.10;;;26.80;99.90;;;;;;5056098;28;20481;-50
2022/11/01 12:04:12;;;;;;;20.92;10.65;;;26.90;99.90;;;;;;5074222;28;20031;-50
2022/11/01 12:06:43;;;;;;;20.17;10.85;;;27.00;99.90;;;;;;5074384;28;20103;-50
2022/11/01 12:09:46;;;;;;;18.33;9.60;;;27.00;99.90;;;;;;5074027;28;20028;-50
2022/11/01 12:12:23;;;;;;;16.05;9.43;;;27.00;99.90;;;;;;5073794;28;20475;-50
2022/11/01 12:14:49;;;;;;;26.83;10.48;;;27.10;99.90;;;;;;5073872;28;20025;-50
2022/11/01 12:17:35;;;;;;;21.98;11.27;;;27.10;99.90;;;;;;5056021;28;20074;-50
2022/11/01 12:20:11;;;;;;;23.40;12.98;;;27.10;99.90;;;;;;5073979;28;20039;-50
2022/11/01 12:22:40;;;;;;;21.13;10.10;;;27.20;99.90;;;;;;5055884;28;20037;-50
2022/11/01 12:25:13;;;;;;;24.63;11.13;;;27.20;99.90;;;;;;5073730;28;20110;-50
2022/11/01 12:27:52;;;;;;;26.05;10.85;;;27.20;99.90;;;;;;5073501;28;20135;-50
2022/11/01 12:30:21;;;;;;;22.83;10.75;;;27.30;99.90;;;;;;5072882;28;20033;-50
2022/11/01 12:32:53;;;;;;;27.95;12.88;;;27.30;99.90;;;;;;5055693;28;20032;-50
2022/11/01 12:35:40;;;;;;;21.17;11.13;;;27.30;99.90;;;;;;5073435;28;20473;-50
2022/11/01 12:38:40;;;;;;;21.13;12.55;;;27.40;99.90;;;;;;5073638;28;20027;-50
2022/11/01 12:41:29;;;;;;;27.10;12.40;;;27.40;99.90;;;;;;5073469;28;20040;-51
2022/11/01 12:44:23;;;;;;;20.80;11.93;;;27.50;99.90;;;;;;5073147;28;20119;-51
2022/11/01 12:47:01;;;;;;;31.92;15.15;;;27.50;99.90;;;;;;5073582;28;20428;-50
2022/11/01 12:49:30;;;;;;;35.10;20.58;;;27.60;99.90;;;;;;5073227;28;20108;-50
2022/11/01 12:52:04;;;;;;;28.02;13.63;;;27.60;99.90;;;;;;5073158;28;20028;-50
2022/11/01 12:54:37;;;;;;;20.23;11.45;;;27.60;99.90;;;;;;5073217;28;20047;-51